createdAt,value
2017-05-11T00:01:30.845Z,8.54
2017-05-11T00:03:58.031Z,7.82
2017-05-11T00:06:25.207Z,8.04
2017-05-11T00:08:52.422Z,8.80
2017-05-11T00:11:19.608Z,8.92
2017-05-11T00:13:47.964Z,8.94
2017-05-11T00:16:15.178Z,8.06
2017-05-11T00:18:42.367Z,8.24
2017-05-11T00:21:09.608Z,9.16
2017-05-11T00:23:36.807Z,8.68
2017-05-11T00:26:03.977Z,9.36
2017-05-11T00:28:31.202Z,8.88
2017-05-11T00:30:58.419Z,9.50
2017-05-11T00:33:26.658Z,9.00
2017-05-11T00:35:53.839Z,9.42
2017-05-11T00:38:21.036Z,8.66
2017-05-11T00:40:49.502Z,9.08
2017-05-11T00:43:17.933Z,9.80
2017-05-11T00:45:45.120Z,11.62
2017-05-11T00:48:12.321Z,8.98
2017-05-11T00:50:39.537Z,9.70
2017-05-11T00:53:06.733Z,10.66
2017-05-11T00:55:33.933Z,9.24
2017-05-11T00:58:01.115Z,8.62
2017-05-11T01:00:28.316Z,8.92
2017-05-11T01:02:55.535Z,9.28
2017-05-11T01:05:22.722Z,9.22
2017-05-11T01:07:49.942Z,9.66
2017-05-11T01:10:17.119Z,8.76
2017-05-11T01:12:44.521Z,9.20
2017-05-11T01:15:11.734Z,10.04
2017-05-11T01:17:38.970Z,11.06
2017-05-11T01:20:06.173Z,9.80
2017-05-11T01:22:33.359Z,9.96
2017-05-11T01:25:00.530Z,10.64
2017-05-11T01:27:27.732Z,10.42
2017-05-11T01:29:54.931Z,9.60
2017-05-11T01:32:22.174Z,11.92
2017-05-11T01:34:49.504Z,11.26
2017-05-11T01:37:16.670Z,11.62
2017-05-11T01:39:43.876Z,11.44
2017-05-11T01:42:11.084Z,11.86
2017-05-11T01:44:41.082Z,13.02
2017-05-11T01:47:08.261Z,10.50
2017-05-11T01:49:35.446Z,10.64
2017-05-11T01:52:02.663Z,12.08
2017-05-11T01:54:29.848Z,12.06
2017-05-11T01:56:57.058Z,10.66
2017-05-11T01:59:24.954Z,10.46
2017-05-11T02:01:52.140Z,10.42
2017-05-11T02:04:20.274Z,11.86
2017-05-11T02:06:47.453Z,10.36
2017-05-11T02:09:14.674Z,13.28
2017-05-11T02:11:41.850Z,11.22
2017-05-11T02:14:10.249Z,11.78
2017-05-11T02:16:37.454Z,11.98
2017-05-11T02:19:04.631Z,11.88
2017-05-11T02:21:31.861Z,10.92
2017-05-11T02:23:59.038Z,11.72
2017-05-11T02:26:26.226Z,11.50
2017-05-11T02:28:53.435Z,11.12
2017-05-11T02:31:20.698Z,11.58
2017-05-11T02:33:47.927Z,11.86
2017-05-11T02:36:15.101Z,11.98
2017-05-11T02:38:44.301Z,11.38
2017-05-11T02:41:11.502Z,10.60
2017-05-11T02:43:38.690Z,11.48
2017-05-11T02:46:05.914Z,10.38
2017-05-11T02:48:33.103Z,11.20
2017-05-11T02:51:00.294Z,11.10
2017-05-11T02:53:34.223Z,12.08
2017-05-11T02:56:01.403Z,11.56
2017-05-11T02:58:28.614Z,10.64
2017-05-11T03:00:55.811Z,11.80
2017-05-11T03:03:23.856Z,11.90
2017-05-11T03:05:51.046Z,11.76
2017-05-11T03:08:18.245Z,12.10
2017-05-11T03:10:45.494Z,12.96
2017-05-11T03:13:12.689Z,12.06
2017-05-11T03:15:39.869Z,11.64
2017-05-11T03:18:07.086Z,12.40
2017-05-11T03:20:34.274Z,13.48
2017-05-11T03:23:01.494Z,12.74
2017-05-11T03:25:28.686Z,11.62
2017-05-11T03:27:57.103Z,12.08
2017-05-11T03:30:24.296Z,12.56
2017-05-11T03:32:51.480Z,11.56
2017-05-11T03:35:18.712Z,14.08
2017-05-11T03:37:46.634Z,11.88
2017-05-11T03:40:13.821Z,12.86
2017-05-11T03:42:41.059Z,13.88
2017-05-11T03:45:08.227Z,14.40
2017-05-11T03:47:41.198Z,14.74
2017-05-11T03:50:15.524Z,14.86
2017-05-11T03:52:42.754Z,13.76
2017-05-11T03:55:13.621Z,14.86
2017-05-11T03:57:41.514Z,13.92
2017-05-11T04:00:08.723Z,14.16
2017-05-11T04:02:35.931Z,14.76
2017-05-11T04:05:03.160Z,14.26
2017-05-11T04:07:30.348Z,14.68
2017-05-11T04:09:57.529Z,13.92
2017-05-11T04:12:24.759Z,13.48
2017-05-11T04:14:52.270Z,14.20
2017-05-11T04:17:23.861Z,14.62
2017-05-11T04:19:51.038Z,13.84
2017-05-11T04:22:22.161Z,13.38
2017-05-11T04:24:49.373Z,14.02
2017-05-11T04:27:16.566Z,13.80
2017-05-11T04:29:43.779Z,12.86
2017-05-11T04:32:11.670Z,14.44
2017-05-11T04:34:38.857Z,13.02
2017-05-11T04:37:06.078Z,13.58
2017-05-11T04:39:33.281Z,11.66
2017-05-11T04:42:00.507Z,12.80
2017-05-11T04:44:27.690Z,11.90
2017-05-11T04:46:54.888Z,12.14
2017-05-11T04:49:25.137Z,11.40
2017-05-11T04:51:54.744Z,10.20
2017-05-11T04:54:23.282Z,10.02
2017-05-11T04:56:50.473Z,11.18
2017-05-11T04:59:17.679Z,10.90
2017-05-11T05:01:44.914Z,10.26
2017-05-11T05:04:16.721Z,11.18
2017-05-11T05:06:43.982Z,10.20
2017-05-11T05:09:11.193Z,10.38
2017-05-11T05:11:38.421Z,10.96
2017-05-11T05:14:05.614Z,9.64
2017-05-11T05:16:32.803Z,9.84
2017-05-11T05:19:00.023Z,10.40
2017-05-11T05:21:27.268Z,9.46
2017-05-11T05:23:54.455Z,10.42
2017-05-11T05:26:21.664Z,11.04
2017-05-11T05:28:48.970Z,10.08
2017-05-11T05:31:17.410Z,10.22
2017-05-11T05:33:44.581Z,10.52
2017-05-11T05:36:13.753Z,10.00
2017-05-11T05:38:41.464Z,12.14
2017-05-11T05:41:08.677Z,12.22
2017-05-11T05:43:35.902Z,9.98
2017-05-11T05:46:04.012Z,10.94
2017-05-11T05:48:32.646Z,11.14
2017-05-11T05:51:00.422Z,10.42
2017-05-11T05:53:33.407Z,10.38
2017-05-11T05:56:03.322Z,10.18
2017-05-11T05:58:31.633Z,9.56
2017-05-11T06:00:59.386Z,10.02
2017-05-11T06:03:26.704Z,8.84
2017-05-11T06:05:53.888Z,10.78
2017-05-11T06:08:21.144Z,10.02
2017-05-11T06:10:48.381Z,9.12
2017-05-11T06:13:15.608Z,8.50
2017-05-11T06:15:43.743Z,8.54
2017-05-11T06:18:10.929Z,9.16
2017-05-11T06:20:39.250Z,8.22
2017-05-11T06:23:06.498Z,8.38
2017-05-11T06:25:33.810Z,8.78
2017-05-11T06:28:01.058Z,8.14
2017-05-11T06:30:28.295Z,8.12
2017-05-11T06:32:56.102Z,9.40
2017-05-11T06:35:23.290Z,8.38
2017-05-11T06:37:50.517Z,8.54
2017-05-11T06:40:17.725Z,8.94
2017-05-11T06:42:44.958Z,8.84
2017-05-11T06:45:12.163Z,9.18
2017-05-11T06:47:39.381Z,8.74
2017-05-11T06:50:06.588Z,8.88
2017-05-11T06:52:33.777Z,8.10
2017-05-11T06:55:07.000Z,9.04
2017-05-11T06:57:34.222Z,9.42
2017-05-11T07:00:01.464Z,8.88
2017-05-11T07:02:28.699Z,8.30
2017-05-11T07:04:57.145Z,8.86
2017-05-11T07:07:24.528Z,8.70
2017-05-11T07:09:51.735Z,8.40
2017-05-11T07:12:18.927Z,8.22
2017-05-11T07:14:46.156Z,9.34
2017-05-11T07:17:13.330Z,9.38
2017-05-11T07:19:40.600Z,8.84
2017-05-11T07:22:07.802Z,8.44
2017-05-11T07:24:34.966Z,9.08
2017-05-11T07:27:02.211Z,7.92
2017-05-11T07:29:29.377Z,9.80
2017-05-11T07:31:56.623Z,8.48
2017-05-11T07:34:23.794Z,7.90
2017-05-11T07:36:50.967Z,8.02
2017-05-11T07:39:18.163Z,7.18
2017-05-11T07:41:45.326Z,7.82
2017-05-11T07:44:12.635Z,8.46
2017-05-11T07:46:39.884Z,7.30
2017-05-11T07:49:07.067Z,7.42
2017-05-11T07:51:34.240Z,7.66
2017-05-11T07:54:01.519Z,7.28
2017-05-11T07:56:28.711Z,7.50
2017-05-11T07:58:55.882Z,7.42
2017-05-11T08:01:23.075Z,7.92
2017-05-11T08:03:50.240Z,7.40
2017-05-11T08:06:17.442Z,6.52
2017-05-11T08:08:44.636Z,6.10
2017-05-11T08:11:11.863Z,6.30
2017-05-11T08:13:39.066Z,6.80
2017-05-11T08:16:06.242Z,6.90
2017-05-11T08:18:33.443Z,6.44
2017-05-11T08:23:42.304Z,6.40
2017-05-11T08:26:09.474Z,7.10
2017-05-11T08:28:36.697Z,7.14
2017-05-11T08:31:03.933Z,6.68
2017-05-11T08:33:31.122Z,6.18
2017-05-11T08:35:58.339Z,6.82
2017-05-11T08:38:25.631Z,6.30
2017-05-11T08:40:52.811Z,6.60
2017-05-11T08:43:20.935Z,5.36
2017-05-11T08:45:48.120Z,5.90
2017-05-11T08:48:15.334Z,5.92
2017-05-11T08:50:42.529Z,5.72
2017-05-11T08:53:09.705Z,5.62
2017-05-11T08:55:36.899Z,5.38
2017-05-11T08:58:04.092Z,4.52
2017-05-11T09:00:31.320Z,5.38
2017-05-11T09:03:00.464Z,6.16
2017-05-11T09:05:27.667Z,5.88
2017-05-11T09:07:54.855Z,6.36
2017-05-11T09:10:25.736Z,5.76
2017-05-11T09:12:52.938Z,5.40
2017-05-11T09:15:20.152Z,6.18
2017-05-11T09:17:47.339Z,5.40
2017-05-11T09:20:14.590Z,6.42
2017-05-11T09:22:41.759Z,5.48
2017-05-11T09:25:09.909Z,5.16
2017-05-11T09:27:37.095Z,6.37
2017-05-11T09:30:04.265Z,6.08
2017-05-11T09:32:31.655Z,6.08
2017-05-11T09:34:58.818Z,5.80
2017-05-11T09:37:27.036Z,5.72
2017-05-11T09:39:54.238Z,5.22
2017-05-11T09:42:21.421Z,5.22
2017-05-11T09:44:48.636Z,5.02
2017-05-11T09:47:15.814Z,5.38
2017-05-11T09:49:43.026Z,4.88
2017-05-11T09:52:10.284Z,5.52
2017-05-11T09:54:38.449Z,4.62
2017-05-11T09:57:05.692Z,5.58
2017-05-11T09:59:32.910Z,4.78
2017-05-11T10:02:00.138Z,5.22
2017-05-11T10:04:27.328Z,4.70
2017-05-11T10:06:54.486Z,4.76
2017-05-11T10:09:21.718Z,4.46
2017-05-11T10:11:48.945Z,5.50
2017-05-11T10:14:16.204Z,5.32
2017-05-11T10:16:43.415Z,4.88
2017-05-11T10:19:10.631Z,5.12
2017-05-11T10:21:37.847Z,5.16
2017-05-11T10:24:05.036Z,4.62
2017-05-11T10:26:32.267Z,4.70
2017-05-11T10:28:59.597Z,4.78
2017-05-11T10:31:26.778Z,5.14
2017-05-11T10:33:54.222Z,5.62
2017-05-11T10:36:21.410Z,5.06
2017-05-11T10:38:48.651Z,5.32
2017-05-11T10:41:15.951Z,5.32
2017-05-11T10:43:43.134Z,6.12
2017-05-11T10:46:10.408Z,5.42
2017-05-11T10:48:38.266Z,5.08
2017-05-11T10:51:05.606Z,4.80
2017-05-11T10:53:32.806Z,5.28
2017-05-11T10:56:00.368Z,6.76
2017-05-11T10:58:27.642Z,6.48
2017-05-11T11:00:54.864Z,5.96
2017-05-11T11:03:22.152Z,5.74
2017-05-11T11:05:49.406Z,5.94
2017-05-11T11:08:16.579Z,6.30
2017-05-11T11:10:43.794Z,6.14
2017-05-11T11:13:11.017Z,6.90
2017-05-11T11:15:38.239Z,6.12
2017-05-11T11:18:05.431Z,6.86
2017-05-11T11:20:33.545Z,5.10
2017-05-11T11:23:01.309Z,7.04
2017-05-11T11:25:29.241Z,5.82
2017-05-11T11:27:56.528Z,5.38
2017-05-11T11:30:23.694Z,5.00
2017-05-11T11:32:51.003Z,6.24
2017-05-11T11:35:18.934Z,5.94
2017-05-11T11:37:46.111Z,5.28
2017-05-11T11:40:13.856Z,4.78
2017-05-11T11:42:42.435Z,4.98
2017-05-11T11:45:15.033Z,4.90
2017-05-11T11:47:42.839Z,4.74
2017-05-11T11:50:10.815Z,4.74
2017-05-11T11:52:39.055Z,4.92
2017-05-11T11:55:06.224Z,4.50
2017-05-11T11:57:33.461Z,4.38
2017-05-11T12:00:00.672Z,6.54
2017-05-11T12:02:27.859Z,4.62
2017-05-11T12:04:55.119Z,4.40
2017-05-11T12:07:22.319Z,4.68
2017-05-11T12:09:49.579Z,4.58
2017-05-11T12:12:16.771Z,4.70
2017-05-11T12:14:44.045Z,5.62
2017-05-11T12:17:11.262Z,4.72
2017-05-11T12:19:38.443Z,4.46
2017-05-11T12:22:05.671Z,5.20
2017-05-11T12:24:32.918Z,4.90
2017-05-11T12:27:00.118Z,5.08
2017-05-11T12:29:27.319Z,6.06
2017-05-11T12:31:54.552Z,4.86
2017-05-11T12:34:21.810Z,4.94
2017-05-11T12:36:49.049Z,6.06
2017-05-11T12:39:16.663Z,5.82
2017-05-11T12:41:43.876Z,6.44
2017-05-11T12:44:11.077Z,5.48
2017-05-11T12:46:38.283Z,5.52
2017-05-11T12:49:05.465Z,5.86
2017-05-11T12:51:32.643Z,6.00
2017-05-11T12:53:59.832Z,5.94
2017-05-11T12:56:27.013Z,6.56
2017-05-11T12:58:54.234Z,5.88
2017-05-11T13:01:21.433Z,6.26
2017-05-11T13:03:48.630Z,6.42
2017-05-11T13:06:15.875Z,6.62
2017-05-11T13:08:43.111Z,5.76
2017-05-11T13:11:10.356Z,6.48
2017-05-11T13:13:37.527Z,7.12
2017-05-11T13:16:05.753Z,7.68
2017-05-11T13:18:32.971Z,6.66
2017-05-11T13:21:00.188Z,7.28
2017-05-11T13:23:28.368Z,6.26
2017-05-11T13:25:55.550Z,7.26
2017-05-11T13:28:22.729Z,6.26
2017-05-11T13:30:49.951Z,6.34
2017-05-11T13:33:18.152Z,7.36
2017-05-11T13:35:45.426Z,6.84
2017-05-11T13:38:12.654Z,6.36
2017-05-11T13:40:41.856Z,6.44
2017-05-11T13:43:09.045Z,5.88
2017-05-11T13:48:10.903Z,6.30
2017-05-11T13:50:38.130Z,7.10
2017-05-11T13:53:05.314Z,6.42
2017-05-11T13:55:32.492Z,8.24
2017-05-11T13:57:59.787Z,6.74
2017-05-11T14:00:27.058Z,8.10
2017-05-11T14:02:54.899Z,8.06
2017-05-11T14:05:22.098Z,6.42
2017-05-11T14:07:55.708Z,6.48
2017-05-11T14:10:26.283Z,6.78
2017-05-11T14:12:55.517Z,6.52
2017-05-11T14:15:22.719Z,7.58
2017-05-11T14:17:50.387Z,8.20
2017-05-11T14:20:21.842Z,7.30
2017-05-11T14:22:49.026Z,6.56
2017-05-11T14:25:16.246Z,6.72
2017-05-11T14:27:43.743Z,7.02
2017-05-11T14:30:10.923Z,7.82
2017-05-11T14:32:38.472Z,7.80
2017-05-11T14:35:05.914Z,6.60
2017-05-11T14:37:33.605Z,7.56
2017-05-11T14:40:02.751Z,7.56
2017-05-11T14:42:30.056Z,6.94
2017-05-11T14:44:59.473Z,7.94
2017-05-11T14:47:26.663Z,7.58
2017-05-11T14:49:53.923Z,7.02
2017-05-11T14:52:22.168Z,7.40
2017-05-11T14:54:57.819Z,7.42
2017-05-11T14:57:27.489Z,7.20
2017-05-11T14:59:54.837Z,6.70
2017-05-11T15:02:22.053Z,6.88
2017-05-11T15:04:49.311Z,7.98
2017-05-11T15:07:16.494Z,7.72
2017-05-11T15:09:43.762Z,7.28
2017-05-11T15:12:12.121Z,7.80
2017-05-11T15:14:39.302Z,7.98
2017-05-11T15:17:06.526Z,7.16
2017-05-11T15:19:33.714Z,6.88
2017-05-11T15:22:00.908Z,7.88
2017-05-11T15:24:28.167Z,6.98
2017-05-11T15:26:55.401Z,6.56
2017-05-11T15:29:22.598Z,6.28
2017-05-11T15:31:49.807Z,6.90
2017-05-11T15:34:17.031Z,6.98
2017-05-11T15:36:44.209Z,7.38
2017-05-11T15:39:11.396Z,6.80
2017-05-11T15:41:38.597Z,7.40
2017-05-11T15:44:05.797Z,7.10
2017-05-11T15:46:32.997Z,7.24
2017-05-11T15:49:00.197Z,6.84
2017-05-11T15:51:27.417Z,6.98
2017-05-11T15:53:54.628Z,6.74
2017-05-11T15:56:21.817Z,7.22
2017-05-11T15:58:49.000Z,7.00
2017-05-11T16:01:16.198Z,6.80
2017-05-11T16:03:43.411Z,6.92
2017-05-11T16:06:10.617Z,6.58
2017-05-11T16:08:37.818Z,6.82
2017-05-11T16:11:05.078Z,6.34
2017-05-11T16:13:32.309Z,5.84
2017-05-11T16:15:59.484Z,5.76
2017-05-11T16:18:26.707Z,6.04
2017-05-11T16:20:53.959Z,6.52
2017-05-11T16:23:21.199Z,5.64
2017-05-11T16:25:48.432Z,5.80
2017-05-11T16:28:15.602Z,5.74
2017-05-11T16:30:42.825Z,6.22
2017-05-11T16:33:10.047Z,5.82
2017-05-11T16:35:37.319Z,5.30
2017-05-11T16:38:04.505Z,6.06
2017-05-11T16:40:31.734Z,6.08
2017-05-11T16:42:58.932Z,6.40
2017-05-11T16:45:26.120Z,6.70
2017-05-11T16:47:53.338Z,5.42
2017-05-11T16:50:21.423Z,5.60
2017-05-11T16:52:48.607Z,5.22
2017-05-11T16:55:15.806Z,5.82
2017-05-11T16:57:44.975Z,5.16
2017-05-11T17:00:12.187Z,5.04
2017-05-11T17:02:39.967Z,6.20
2017-05-11T17:05:07.154Z,5.82
2017-05-11T17:07:34.399Z,6.04
2017-05-11T17:10:01.597Z,5.46
2017-05-11T17:12:28.762Z,5.48
2017-05-11T17:14:57.865Z,5.20
2017-05-11T17:17:25.048Z,6.02
2017-05-11T17:19:52.424Z,5.10
2017-05-11T17:22:19.622Z,5.60
2017-05-11T17:24:46.794Z,5.66
2017-05-11T17:27:13.996Z,5.78
2017-05-11T17:29:41.254Z,5.90
2017-05-11T17:32:08.507Z,5.72
2017-05-11T17:34:35.725Z,5.00
2017-05-11T17:37:19.874Z,4.90
2017-05-11T17:39:57.191Z,5.20
2017-05-11T17:42:25.092Z,5.78
2017-05-11T17:44:53.570Z,6.16
2017-05-11T17:47:20.728Z,5.20
2017-05-11T17:52:53.697Z,5.94
2017-05-11T17:55:22.175Z,5.46
2017-05-11T17:57:49.362Z,4.92
2017-05-11T18:00:16.550Z,5.44
2017-05-11T18:02:44.688Z,5.20
2017-05-11T18:05:12.760Z,5.98
2017-05-11T18:07:40.790Z,5.80
2017-05-11T18:10:07.988Z,6.46
2017-05-11T18:12:35.988Z,5.56
2017-05-11T18:15:03.179Z,5.54
2017-05-11T18:17:30.381Z,4.98
2017-05-11T18:19:57.573Z,5.20
2017-05-11T18:22:24.794Z,5.28
2017-05-11T18:24:57.092Z,5.16
2017-05-11T18:27:24.257Z,5.30
2017-05-11T18:29:51.459Z,4.50
2017-05-11T18:32:18.666Z,4.02
2017-05-11T18:34:46.815Z,4.26
2017-05-11T18:37:14.052Z,3.70
2017-05-11T18:39:43.311Z,3.62
2017-05-11T18:42:10.511Z,3.72
2017-05-11T18:44:41.502Z,3.86
2017-05-11T18:47:08.822Z,3.82
2017-05-11T18:49:37.234Z,3.70
2017-05-11T18:52:09.366Z,4.62
2017-05-11T18:54:37.264Z,4.94
2017-05-11T18:57:04.479Z,4.10
2017-05-11T18:59:31.663Z,4.16
2017-05-11T19:02:01.015Z,4.12
2017-05-11T19:04:28.266Z,4.92
2017-05-11T19:06:55.472Z,3.88
2017-05-11T19:09:22.642Z,3.88
2017-05-11T19:11:49.837Z,3.98
2017-05-11T19:14:25.678Z,4.52
2017-05-11T19:16:52.880Z,4.36
2017-05-11T19:19:22.647Z,4.42
2017-05-11T19:21:50.820Z,4.10
2017-05-11T19:24:19.587Z,3.80
2017-05-11T19:26:46.797Z,3.94
2017-05-11T19:29:15.584Z,4.26
2017-05-11T19:31:50.967Z,3.74
2017-05-11T19:37:03.657Z,4.04
2017-05-11T19:39:31.465Z,4.78
2017-05-11T19:41:58.727Z,4.44
2017-05-11T19:44:30.483Z,4.58
2017-05-11T19:46:57.683Z,4.54
2017-05-11T19:49:25.734Z,4.50
2017-05-11T19:51:57.487Z,4.20
2017-05-11T19:54:27.822Z,4.18
2017-05-11T19:56:57.952Z,4.50
2017-05-11T19:59:25.761Z,4.34
2017-05-11T20:01:59.111Z,4.54
2017-05-11T20:04:27.294Z,4.14
2017-05-11T20:06:57.461Z,6.18
2017-05-11T20:09:25.527Z,4.60
2017-05-11T20:11:57.517Z,3.98
2017-05-11T20:14:26.001Z,3.90
2017-05-11T20:16:53.743Z,4.46
2017-05-11T20:19:24.351Z,4.20
2017-05-11T20:21:51.903Z,4.70
2017-05-11T20:24:20.409Z,4.28
2017-05-11T20:26:47.865Z,4.38
2017-05-11T20:29:15.154Z,4.36
2017-05-11T20:31:42.324Z,3.88
2017-05-11T20:34:09.524Z,4.60
2017-05-11T20:36:36.750Z,5.24
2017-05-11T20:39:03.961Z,4.92
2017-05-11T20:41:31.259Z,4.46
2017-05-11T20:43:58.451Z,5.02
2017-05-11T20:46:25.649Z,4.68
2017-05-11T20:48:56.483Z,4.66
2017-05-11T20:51:23.664Z,4.64
2017-05-11T20:53:50.870Z,4.70
2017-05-11T20:56:18.983Z,4.50
2017-05-11T20:58:46.158Z,4.36
2017-05-11T21:01:13.345Z,4.00
2017-05-11T21:03:41.513Z,5.24
2017-05-11T21:06:08.717Z,4.16
2017-05-11T21:08:35.923Z,4.30
2017-05-11T21:11:03.149Z,4.08
2017-05-11T21:13:31.195Z,4.20
2017-05-11T21:15:58.356Z,4.14
2017-05-11T21:18:25.550Z,3.98
2017-05-11T21:20:54.903Z,3.80
2017-05-11T21:23:22.105Z,3.82
2017-05-11T21:25:49.953Z,3.98
2017-05-11T21:28:17.172Z,3.96
2017-05-11T21:30:44.366Z,4.40
2017-05-11T21:33:11.545Z,4.20
2017-05-11T21:35:38.742Z,4.08
2017-05-11T21:38:05.920Z,4.04
2017-05-11T21:40:33.127Z,3.40
2017-05-11T21:43:00.316Z,3.44
2017-05-11T21:45:28.375Z,3.48
2017-05-11T21:47:55.588Z,4.28
2017-05-11T21:50:23.458Z,4.00
2017-05-11T21:52:50.658Z,3.60
2017-05-11T21:55:17.835Z,3.62
2017-05-11T21:57:50.102Z,4.22
2017-05-11T22:00:17.330Z,3.50
2017-05-11T22:02:44.533Z,3.52
2017-05-11T22:05:12.242Z,4.12
2017-05-11T22:07:39.434Z,3.30
2017-05-11T22:10:06.623Z,3.44
2017-05-11T22:15:10.198Z,3.62
2017-05-11T22:17:37.418Z,3.88
2017-05-11T22:20:06.562Z,3.80
2017-05-11T22:22:33.746Z,4.14
2017-05-11T22:25:10.202Z,3.84
2017-05-11T22:27:40.069Z,4.00
2017-05-11T22:30:07.261Z,4.82
2017-05-11T22:32:34.475Z,4.62
2017-05-11T22:35:01.658Z,4.38
2017-05-11T22:37:29.795Z,4.10
2017-05-11T22:39:57.009Z,4.56
2017-05-11T22:42:38.404Z,4.28
2017-05-11T22:45:07.318Z,4.42
2017-05-11T22:47:38.382Z,4.06
2017-05-11T22:50:07.503Z,3.92
2017-05-11T22:52:35.038Z,4.32
2017-05-11T22:55:02.219Z,4.52
2017-05-11T22:57:30.226Z,4.48
2017-05-11T22:59:57.434Z,3.70
2017-05-11T23:02:24.675Z,4.48
2017-05-11T23:04:53.877Z,4.40
2017-05-11T23:10:09.831Z,4.42
2017-05-11T23:12:37.749Z,4.08
2017-05-11T23:15:04.947Z,4.60
2017-05-11T23:17:32.116Z,4.32
2017-05-11T23:19:59.326Z,3.90
2017-05-11T23:22:28.998Z,4.06
2017-05-11T23:24:56.202Z,4.22
2017-05-11T23:27:23.471Z,4.12
2017-05-11T23:29:50.666Z,4.58
2017-05-11T23:32:17.833Z,5.48
2017-05-11T23:34:45.010Z,3.88
2017-05-11T23:37:12.235Z,4.20
2017-05-11T23:39:39.392Z,3.82
2017-05-11T23:42:06.583Z,4.76
2017-05-11T23:44:34.319Z,4.50
2017-05-11T23:47:04.022Z,3.72
2017-05-11T23:49:31.257Z,4.46
2017-05-11T23:51:58.426Z,4.10
2017-05-11T23:54:25.610Z,4.10
2017-05-11T23:56:52.823Z,3.90
2017-05-11T23:59:20.581Z,5.30
